createdAt,value
2018-08-20T00:00:27.156Z,19.80
2018-08-20T00:05:35.473Z,19.80
2018-08-20T00:10:38.443Z,19.80
2018-08-20T00:15:41.382Z,19.70
2018-08-20T00:20:44.782Z,19.60
2018-08-20T00:25:47.751Z,19.50
2018-08-20T00:30:50.745Z,19.60
2018-08-20T00:35:53.711Z,19.50
2018-08-20T00:40:56.623Z,19.30
2018-08-20T00:45:59.546Z,19.30
2018-08-20T00:51:02.502Z,19.20
2018-08-20T00:56:05.416Z,19.00
2018-08-20T01:01:08.363Z,18.90
2018-08-20T01:06:11.315Z,18.80
2018-08-20T01:11:14.362Z,18.80
2018-08-20T01:16:17.431Z,18.80
2018-08-20T01:21:20.413Z,18.80
2018-08-20T01:26:23.339Z,18.80
2018-08-20T01:31:26.275Z,18.70
2018-08-20T01:36:29.208Z,18.40
2018-08-20T01:41:32.278Z,17.80
2018-08-20T01:46:35.224Z,17.40
2018-08-20T01:51:38.206Z,17.50
2018-08-20T01:56:41.214Z,17.70
2018-08-20T02:01:44.161Z,17.60
2018-08-20T02:06:47.188Z,17.30
2018-08-20T02:11:50.207Z,17.20
2018-08-20T02:16:53.172Z,17.30
2018-08-20T02:21:56.102Z,17.50
2018-08-20T02:26:59.008Z,17.60
2018-08-20T02:32:01.915Z,17.70
2018-08-20T02:37:05.359Z,17.90
2018-08-20T02:42:08.345Z,17.90
2018-08-20T02:47:11.315Z,17.90
2018-08-20T02:52:14.276Z,17.80
2018-08-20T02:57:17.244Z,17.40
2018-08-20T03:02:20.175Z,17.30
2018-08-20T03:07:23.235Z,16.80
2018-08-20T03:12:26.141Z,16.80
2018-08-20T03:17:29.037Z,16.90
2018-08-20T03:22:31.977Z,17.10
2018-08-20T03:27:34.887Z,17.20
2018-08-20T03:32:38.488Z,17.20
2018-08-20T03:37:41.461Z,17.30
2018-08-20T03:42:44.448Z,17.30
2018-08-20T03:47:47.430Z,17.40
2018-08-20T03:52:50.335Z,17.60
2018-08-20T03:57:53.267Z,17.50
2018-08-20T04:02:56.189Z,17.60
2018-08-20T04:07:59.092Z,17.60
2018-08-20T04:13:02.086Z,17.70
2018-08-20T04:18:05.092Z,17.80
2018-08-20T04:23:08.012Z,17.70
2018-08-20T04:28:10.982Z,17.80
2018-08-20T04:33:13.925Z,17.80
2018-08-20T04:38:16.876Z,17.90
2018-08-20T04:43:19.770Z,17.80
2018-08-20T04:48:22.697Z,17.60
2018-08-20T04:53:25.983Z,17.80
2018-08-20T04:58:29.208Z,18.00
2018-08-20T05:03:32.108Z,18.40
2018-08-20T05:08:35.005Z,18.50
2018-08-20T05:13:37.996Z,18.80
2018-08-20T05:18:41.164Z,19.60
2018-08-20T05:23:44.114Z,21.40
2018-08-20T05:28:47.090Z,22.70
2018-08-20T05:33:50.091Z,23.40
2018-08-20T05:38:53.119Z,24.00
2018-08-20T05:43:56.106Z,24.70
2018-08-20T05:48:59.066Z,24.90
2018-08-20T05:54:02.037Z,25.90
2018-08-20T05:59:05.119Z,26.50
2018-08-20T06:04:08.218Z,26.50
2018-08-20T06:09:11.345Z,27.50
2018-08-20T06:14:14.351Z,27.20
2018-08-20T06:19:17.349Z,27.40
2018-08-20T06:24:21.199Z,26.50
2018-08-20T06:29:24.164Z,25.70
2018-08-20T06:34:27.139Z,26.50
2018-08-20T06:39:30.088Z,26.10
2018-08-20T06:44:35.303Z,25.90
2018-08-20T06:49:38.361Z,27.30
2018-08-20T06:54:41.471Z,28.10
2018-08-20T06:59:44.444Z,26.70
2018-08-20T07:04:47.422Z,26.30
2018-08-20T07:09:50.464Z,25.80
2018-08-20T07:14:53.524Z,25.40
2018-08-20T07:19:56.501Z,25.70
2018-08-20T07:24:59.484Z,26.30
2018-08-20T07:30:02.480Z,27.10
2018-08-20T07:35:05.873Z,28.10
2018-08-20T07:40:08.899Z,26.70
2018-08-20T07:45:12.033Z,26.10
2018-08-20T07:50:15.000Z,25.70
2018-08-20T07:55:18.004Z,26.20
2018-08-20T08:00:21.227Z,26.30
2018-08-20T08:05:24.300Z,27.00
2018-08-20T08:10:27.371Z,26.90
2018-08-20T08:15:30.385Z,26.60
2018-08-20T08:20:33.365Z,26.50
2018-08-20T08:25:36.460Z,26.40
2018-08-20T08:30:39.747Z,26.10
2018-08-20T08:35:42.753Z,26.00
2018-08-20T08:40:45.748Z,26.10
2018-08-20T08:45:48.798Z,26.60
2018-08-20T08:50:51.823Z,26.20
2018-08-20T08:55:54.779Z,26.30
2018-08-20T09:00:57.814Z,26.50
2018-08-20T09:06:02.316Z,26.80
2018-08-20T09:11:05.337Z,27.40
2018-08-20T09:16:08.456Z,27.70
2018-08-20T09:21:11.447Z,29.20
2018-08-20T09:26:14.431Z,28.60
2018-08-20T09:31:17.436Z,27.70
2018-08-20T09:36:20.440Z,27.60
2018-08-20T09:41:23.437Z,27.10
2018-08-20T09:46:26.521Z,27.90
2018-08-20T09:51:29.985Z,28.00
2018-08-20T09:56:33.058Z,27.70
2018-08-20T10:01:36.176Z,27.50
2018-08-20T10:06:39.168Z,27.40
2018-08-20T10:11:42.159Z,27.50
2018-08-20T10:16:45.173Z,28.10
2018-08-20T10:21:48.548Z,28.10
2018-08-20T10:26:51.627Z,28.30
2018-08-20T10:31:54.656Z,28.50
2018-08-20T10:36:57.632Z,28.50
2018-08-20T10:42:01.084Z,28.90
2018-08-20T10:47:04.209Z,29.00
2018-08-20T10:52:07.260Z,28.60
2018-08-20T10:57:10.304Z,28.10
2018-08-20T11:02:13.320Z,27.80
2018-08-20T11:07:16.288Z,26.90
2018-08-20T11:12:19.511Z,26.50
2018-08-20T11:17:22.485Z,27.40
2018-08-20T11:22:25.440Z,27.70
2018-08-20T11:27:28.516Z,28.00
2018-08-20T11:32:31.433Z,28.60
2018-08-20T11:37:34.428Z,29.30
2018-08-20T11:42:37.461Z,29.70
2018-08-20T11:47:40.945Z,29.60
2018-08-20T11:52:43.939Z,28.50
2018-08-20T11:57:46.932Z,28.60
2018-08-20T12:02:49.909Z,28.90
2018-08-20T12:07:52.954Z,29.00
2018-08-20T12:12:55.983Z,28.80
2018-08-20T12:17:59.002Z,29.60
2018-08-20T12:23:02.039Z,29.50
2018-08-20T12:28:05.184Z,29.10
2018-08-20T12:33:09.023Z,29.60
2018-08-20T12:38:12.113Z,29.50
2018-08-20T12:43:15.124Z,29.90
2018-08-20T12:48:18.127Z,30.00
2018-08-20T12:53:21.128Z,29.90
2018-08-20T12:58:24.176Z,29.90
2018-08-20T13:03:27.252Z,30.20
2018-08-20T13:08:30.188Z,29.90
2018-08-20T13:13:33.294Z,29.00
2018-08-20T13:18:36.273Z,28.10
2018-08-20T13:23:39.244Z,28.10
2018-08-20T13:28:42.342Z,28.80
2018-08-20T13:33:45.290Z,28.90
2018-08-20T13:38:48.258Z,28.40
2018-08-20T13:43:51.268Z,28.10
2018-08-20T13:48:54.264Z,28.10
2018-08-20T13:53:57.254Z,28.40
2018-08-20T13:59:00.332Z,29.20
2018-08-20T14:04:03.347Z,28.90
2018-08-20T14:09:08.611Z,28.60
2018-08-20T14:14:11.522Z,28.80
2018-08-20T14:19:14.530Z,29.00
2018-08-20T14:24:17.482Z,29.00
2018-08-20T14:29:20.530Z,29.00
2018-08-20T14:34:23.489Z,28.90
2018-08-20T14:39:26.429Z,28.80
2018-08-20T14:44:29.357Z,29.00
2018-08-20T14:49:32.384Z,28.60
2018-08-20T14:54:35.379Z,28.10
2018-08-20T14:59:38.365Z,28.20
2018-08-20T15:04:41.466Z,28.50
2018-08-20T15:09:44.540Z,28.50
2018-08-20T15:14:47.587Z,28.10
2018-08-20T15:19:50.650Z,28.10
2018-08-20T15:24:53.703Z,28.10
2018-08-20T15:29:56.728Z,28.30
2018-08-20T15:34:59.843Z,27.90
2018-08-20T15:40:03.044Z,27.60
2018-08-20T15:45:06.212Z,27.30
2018-08-20T15:50:09.332Z,27.10
2018-08-20T15:55:12.728Z,27.00
2018-08-20T16:00:15.881Z,27.00
2018-08-20T16:05:19.212Z,27.00
2018-08-20T16:10:22.270Z,27.20
2018-08-20T16:15:25.319Z,27.10
2018-08-20T16:20:28.339Z,27.00
2018-08-20T16:25:31.426Z,27.00
2018-08-20T16:30:34.428Z,27.10
2018-08-20T16:35:37.526Z,26.90
2018-08-20T16:40:40.632Z,26.80
2018-08-20T16:45:43.648Z,26.70
2018-08-20T16:50:46.737Z,26.60
2018-08-20T16:55:49.805Z,26.60
2018-08-20T17:00:52.854Z,26.40
2018-08-20T17:05:57.275Z,26.40
2018-08-20T17:11:01.237Z,26.20
2018-08-20T17:16:04.437Z,26.10
2018-08-20T17:21:07.633Z,26.00
2018-08-20T17:26:10.741Z,25.80
2018-08-20T17:31:13.908Z,25.60
2018-08-20T17:36:16.733Z,25.40
2018-08-20T17:41:19.833Z,25.40
2018-08-20T17:46:22.864Z,25.20
2018-08-20T17:51:25.922Z,25.00
2018-08-20T17:56:28.966Z,24.90
2018-08-20T18:01:35.944Z,24.70
2018-08-20T18:06:51.652Z,24.60
2018-08-20T18:11:55.310Z,24.50
2018-08-20T18:16:58.430Z,24.30
2018-08-20T18:22:01.511Z,24.10
2018-08-20T18:27:04.597Z,24.00
2018-08-20T18:32:07.702Z,23.80
2018-08-20T18:37:10.971Z,23.70
2018-08-20T18:42:18.653Z,23.60
2018-08-20T18:47:23.030Z,23.50
2018-08-20T18:52:29.906Z,23.50
2018-08-20T18:57:35.390Z,23.50
2018-08-20T19:02:47.512Z,23.60
2018-08-20T19:07:51.044Z,23.60
2018-08-20T19:12:54.178Z,23.70
2018-08-20T19:17:57.353Z,23.60
2018-08-20T19:50:42.366Z,23.80
2018-08-20T19:55:45.520Z,23.60
2018-08-20T20:01:05.927Z,23.60
2018-08-20T20:06:09.183Z,23.50
2018-08-20T20:11:30.098Z,23.50
2018-08-20T20:16:40.017Z,23.50
2018-08-20T20:21:43.209Z,23.40
2018-08-20T20:26:46.264Z,23.40
2018-08-20T20:31:49.306Z,23.30
2018-08-20T20:36:52.535Z,23.20
2018-08-20T20:41:55.562Z,23.30
2018-08-20T20:46:58.887Z,23.30
2018-08-20T20:52:02.493Z,23.30
2018-08-20T20:57:05.664Z,23.30
2018-08-20T21:02:09.691Z,23.10
2018-08-20T21:07:20.171Z,23.10
2018-08-20T21:12:23.208Z,23.00
2018-08-20T21:17:26.591Z,23.10
2018-08-20T22:46:16.884Z,22.00
2018-08-20T22:51:20.703Z,21.80
2018-08-20T22:56:34.212Z,21.70
2018-08-20T23:01:37.457Z,21.70
2018-08-20T23:06:40.680Z,21.60
2018-08-20T23:11:43.732Z,21.60
2018-08-20T23:16:49.503Z,21.60
2018-08-20T23:21:53.759Z,21.70
2018-08-20T23:26:56.757Z,21.70
2018-08-20T23:31:59.901Z,21.70
2018-08-20T23:37:03.099Z,21.90
2018-08-20T23:42:06.103Z,22.00
2018-08-20T23:47:09.114Z,22.10
2018-08-20T23:52:12.327Z,22.20
2018-08-20T23:57:15.519Z,22.20
